createdAt,value
2023-04-13T00:05:05.800Z,22.6
2023-04-13T00:10:58.290Z,22.1
2023-04-13T00:16:50.484Z,22.9
2023-04-13T00:22:41.858Z,25
2023-04-13T00:28:33.256Z,24.4
2023-04-13T00:34:25.447Z,24.2
2023-04-13T00:40:16.213Z,23.4
2023-04-13T00:46:07.786Z,23.7
2023-04-13T00:51:59.823Z,23.2
2023-04-13T00:57:51.490Z,23.1
2023-04-13T01:03:44.041Z,22.7
2023-04-13T01:09:36.297Z,22.4
2023-04-13T01:15:11.012Z,22.3
2023-04-13T01:21:57.953Z,21.9
2023-04-13T01:27:49.494Z,23.1
2023-04-13T01:33:41.108Z,25
2023-04-13T01:39:17.678Z,23.4
2023-04-13T01:45:09.051Z,23.2
2023-04-13T01:51:00.507Z,23.4
2023-04-13T01:56:36.507Z,23.3
2023-04-13T02:02:28.986Z,22.8
2023-04-13T02:08:22.201Z,22.7
2023-04-13T02:14:13.051Z,22.2
2023-04-13T02:20:05.155Z,23.1
2023-04-13T02:25:56.436Z,24.8
2023-04-13T02:31:47.894Z,23.5
2023-04-13T02:37:40.316Z,23.3
2023-04-13T02:43:30.889Z,23.5
2023-04-13T02:49:22.661Z,23.3
2023-04-13T02:55:13.957Z,22.9
2023-04-13T03:01:04.452Z,22.7
2023-04-13T03:06:57.987Z,22.2
2023-04-13T03:12:50.789Z,22.9
2023-04-13T03:18:27.025Z,24.8
2023-04-13T03:24:18.475Z,23.6
2023-04-13T03:30:11.009Z,23.2
2023-04-13T03:36:02.753Z,23.5
2023-04-13T03:41:55.180Z,23.1
2023-04-13T03:47:32.336Z,22.9
2023-04-13T03:53:23.679Z,22.6
2023-04-13T03:59:15.577Z,22.2
2023-04-13T04:05:09.161Z,22.6
2023-04-13T04:11:00.262Z,24.4
2023-04-13T04:16:55.206Z,23.9
2023-04-13T04:22:50.068Z,23.3
2023-04-13T04:28:41.339Z,23.6
2023-04-13T04:34:33.204Z,23.1
2023-04-13T04:40:25.941Z,22.9
2023-04-13T04:46:02.422Z,22.7
2023-04-13T04:51:38.291Z,22.3
2023-04-13T04:57:29.937Z,22.3
2023-04-13T05:03:22.466Z,24.3
2023-04-13T05:08:58.943Z,23
2023-04-13T05:14:51.125Z,24.7
2023-04-13T05:20:44.960Z,23.4
2023-04-13T05:26:36.867Z,23.3
2023-04-13T05:32:31.442Z,23.4
2023-04-13T05:38:21.956Z,23.3
2023-04-13T05:44:14.344Z,22.9
2023-04-13T05:50:07.125Z,22.7
2023-04-13T05:55:57.779Z,22.2
2023-04-13T06:01:51.602Z,22.3
2023-04-13T06:07:46.245Z,24.5
2023-04-13T06:13:37.650Z,23.3
2023-04-13T06:19:30.702Z,23
2023-04-13T06:25:23.097Z,23.4
2023-04-13T06:31:14.924Z,22.9
2023-04-13T06:37:07.125Z,22.4
2023-04-13T06:43:02.347Z,22.6
2023-04-13T06:48:49.087Z,24.6
2023-04-13T06:54:40.411Z,23.3
2023-04-13T07:00:45.911Z,22.9
2023-04-13T07:06:41.862Z,22.8
2023-04-13T07:12:33.201Z,22.4
2023-04-13T07:18:26.001Z,22
2023-04-13T07:24:01.200Z,21.7
2023-04-13T07:29:52.388Z,22.9
2023-04-13T07:35:49.089Z,25.3
2023-04-13T07:41:43.634Z,23
2023-04-13T07:47:35.156Z,22.8
2023-04-13T07:53:27.103Z,22.6
2023-04-13T07:59:18.455Z,22.3
2023-04-13T08:05:11.526Z,21.9
2023-04-13T08:11:06.781Z,21.6
2023-04-13T08:16:42.923Z,23.3
2023-04-13T08:22:37.483Z,25.3
2023-04-13T08:28:32.447Z,22.7
2023-04-13T08:34:24.523Z,22.6
2023-04-13T08:40:16.508Z,22.4
2023-04-13T08:46:10.016Z,22.1
2023-04-13T08:52:10.985Z,21.8
2023-04-13T08:57:54.246Z,21.4
2023-04-13T09:04:02.439Z,24.3
2023-04-13T09:09:54.750Z,22.8
2023-04-13T09:15:30.410Z,22.6
2023-04-13T09:21:22.616Z,22.5
2023-04-13T09:35:18.875Z,21.8
2023-04-13T09:40:33.012Z,21.4
2023-04-13T09:51:30.842Z,20.8
2023-04-13T09:57:23.400Z,20.5
2023-04-13T10:02:59.878Z,20.2
2023-04-13T10:08:48.994Z,19.9
2023-04-13T10:14:47.669Z,19.6
2023-04-13T10:20:44.094Z,19.3
2023-04-13T10:26:52.432Z,19.1
2023-04-13T10:32:29.983Z,18.8
2023-04-13T10:38:28.220Z,18.6
2023-04-13T10:44:16.228Z,18.3
2023-04-13T10:49:44.390Z,18.1
2023-04-13T10:55:23.410Z,17.9
2023-04-13T11:01:32.574Z,17.8
2023-04-13T11:07:08.548Z,17.6
2023-04-13T11:12:54.700Z,17.4
2023-04-13T11:18:30.892Z,17.3
2023-04-13T11:24:11.514Z,17.1
2023-04-13T11:35:07.552Z,16.9
2023-04-13T11:40:44.123Z,16.8
2023-04-13T11:46:50.165Z,16.6
2023-04-13T11:52:43.465Z,16.5
2023-04-13T11:58:40.100Z,16.4
2023-04-13T12:05:27.657Z,16.3
2023-04-13T12:11:49.961Z,16.3
2023-04-13T12:20:57.852Z,16.1
2023-04-13T12:27:18.144Z,16
2023-04-13T12:33:12.947Z,15.9
2023-04-13T12:39:07.007Z,15.9
2023-04-13T12:44:57.753Z,15.8
2023-04-13T12:50:50.163Z,15.8
2023-04-13T12:56:42.389Z,15.7
2023-04-13T13:02:34.657Z,15.6
2023-04-13T13:08:36.912Z,15.6
2023-04-13T13:14:38.269Z,15.5
2023-04-13T13:20:45.513Z,15.5
2023-04-13T13:27:30.321Z,15.4
2023-04-13T13:33:50.275Z,15.4
2023-04-13T13:39:27.264Z,15.4
2023-04-13T13:45:20.026Z,15.3
2023-04-13T13:50:57.297Z,15.3
2023-04-13T13:57:05.975Z,15.3
2023-04-13T14:02:41.876Z,15.3
2023-04-13T14:08:34.642Z,15.3
2023-04-13T14:14:20.947Z,15.2
2023-04-13T14:20:24.006Z,15.2
2023-04-13T14:26:16.188Z,15.1
2023-04-13T14:32:08.636Z,15.1
2023-04-13T14:38:00.862Z,15.1
2023-04-13T14:43:52.667Z,15.1
2023-04-13T14:49:45.153Z,15.1
2023-04-13T14:55:37.135Z,15.1
2023-04-13T15:01:30.103Z,15.1
2023-04-13T15:07:27.000Z,15.1
2023-04-13T15:13:19.753Z,15.1
2023-04-13T15:19:12.827Z,15.1
2023-04-13T15:25:05.116Z,15
2023-04-13T15:30:56.959Z,15
2023-04-13T15:36:50.354Z,15
2023-04-13T15:42:41.686Z,15
2023-04-13T15:48:33.905Z,15
2023-04-13T15:54:25.962Z,15
2023-04-13T16:00:17.629Z,15
2023-04-13T16:06:10.821Z,15
2023-04-13T16:12:06.192Z,15
2023-04-13T16:18:12.523Z,15
2023-04-13T16:24:04.926Z,15
2023-04-13T16:29:57.057Z,15
2023-04-13T16:36:05.152Z,15
2023-04-13T16:41:57.809Z,15
2023-04-13T16:47:50.724Z,15
2023-04-13T16:53:27.607Z,15
2023-04-13T16:59:20.017Z,15
2023-04-13T17:05:31.461Z,15
2023-04-13T17:11:22.950Z,15
2023-04-13T17:16:43.899Z,15
2023-04-13T17:22:37.190Z,15
2023-04-13T17:28:29.017Z,15
2023-04-13T17:34:24.479Z,15
2023-04-13T17:40:17.133Z,15
2023-04-13T17:46:09.654Z,15
2023-04-13T17:52:01.894Z,14.9
2023-04-13T17:57:55.989Z,14.9
2023-04-13T18:03:51.000Z,14.9
2023-04-13T18:09:27.811Z,15
2023-04-13T18:15:06.710Z,14.9
2023-04-13T18:20:28.002Z,15
2023-04-13T18:25:50.433Z,15
2023-04-13T18:31:43.103Z,14.9
2023-04-13T18:37:21.614Z,15
2023-04-13T18:42:57.528Z,15
2023-04-13T18:48:19.040Z,14.9
2023-04-13T18:54:11.017Z,15
2023-04-13T18:59:47.233Z,15
2023-04-13T19:05:29.646Z,15
2023-04-13T19:11:22.087Z,15
2023-04-13T19:17:13.749Z,14.9
2023-04-13T19:23:06.376Z,15
2023-04-13T19:29:00.567Z,14.9
2023-04-13T19:34:37.115Z,14.9
2023-04-13T19:40:30.882Z,14.9
2023-04-13T19:46:24.063Z,15
2023-04-13T19:52:16.013Z,14.9
2023-04-13T19:58:08.384Z,21.8
2023-04-13T20:09:54.242Z,22.1
2023-04-13T20:15:46.681Z,23.6
2023-04-13T20:21:39.948Z,25.4
2023-04-13T20:27:34.020Z,22.1
2023-04-13T20:33:26.801Z,22.3
2023-04-13T20:39:03.487Z,24.7
2023-04-13T20:44:55.737Z,22.4
2023-04-13T20:51:34.324Z,22.4
2023-04-13T20:57:25.985Z,22.4
2023-04-13T21:03:18.799Z,22.2
2023-04-13T21:09:11.531Z,23.5
2023-04-13T21:15:03.928Z,24.2
2023-04-13T21:20:59.657Z,22.6
2023-04-13T21:26:51.536Z,22.6
2023-04-13T21:32:27.471Z,22.4
2023-04-13T21:38:12.098Z,22.2
2023-04-13T21:44:04.701Z,21.9
2023-04-13T21:50:03.728Z,21.6
2023-04-13T21:55:57.969Z,22.5
2023-04-13T22:01:50.441Z,24.9
2023-04-13T22:07:58.275Z,22.7
2023-04-13T22:13:49.325Z,22.7
2023-04-13T22:19:43.658Z,22.6
2023-04-13T22:25:19.545Z,22.4
2023-04-13T22:31:11.741Z,22.1
2023-04-13T22:37:04.411Z,21.8
2023-04-13T22:42:56.233Z,21.5
2023-04-13T22:48:47.026Z,23.6
2023-04-13T22:54:38.780Z,24.1
2023-04-13T23:00:15.243Z,22.8
2023-04-13T23:06:12.007Z,22.8
2023-04-13T23:11:48.907Z,22.6
2023-04-13T23:17:25.570Z,22.4
2023-04-13T23:23:17.777Z,22.1
2023-04-13T23:29:10.166Z,21.8
2023-04-13T23:35:02.044Z,21.6
2023-04-13T23:40:53.287Z,23.9
2023-04-13T23:46:45.141Z,23.4
2023-04-13T23:52:36.949Z,22.9
2023-04-13T23:58:28.150Z,22.8
